sensor_id;sensor_type;location;lat;lon;timestamp;pressure;altitude;pressure_sealevel;temperature;humidity
6435;BME280;3250;42.694;23.278;2023-03-01T00:01:06;95304.91;;;7.25;91.91
6435;BME280;3250;42.694;23.278;2023-03-01T00:03:32;95301.38;;;7.17;91.62
6435;BME280;3250;42.694;23.278;2023-03-01T00:05:58;95312.94;;;7.23;91.27
6435;BME280;3250;42.694;23.278;2023-03-01T00:08:25;95301.00;;;7.20;91.08
6435;BME280;3250;42.694;23.278;2023-03-01T00:11:04;95297.13;;;7.16;91.16
6435;BME280;3250;42.694;23.278;2023-03-01T00:13:31;95300.09;;;7.13;90.86
6435;BME280;3250;42.694;23.278;2023-03-01T00:15:56;95296.13;;;7.17;91.21
6435;BME280;3250;42.694;23.278;2023-03-01T00:18:22;95275.53;;;7.14;90.74
6435;BME280;3250;42.694;23.278;2023-03-01T00:20:56;95267.59;;;7.08;90.59
6435;BME280;3250;42.694;23.278;2023-03-01T00:23:22;95265.50;;;7.03;91.24
6435;BME280;3250;42.694;23.278;2023-03-01T00:25:48;95253.88;;;7.06;90.88
6435;BME280;3250;42.694;23.278;2023-03-01T00:28:14;95268.69;;;7.28;90.79
6435;BME280;3250;42.694;23.278;2023-03-01T00:30:39;95266.22;;;7.27;90.17
6435;BME280;3250;42.694;23.278;2023-03-01T00:33:05;95263.09;;;7.16;90.76
6435;BME280;3250;42.694;23.278;2023-03-01T00:35:32;95253.88;;;7.20;90.40
6435;BME280;3250;42.694;23.278;2023-03-01T00:37:57;95250.19;;;7.15;90.19
6435;BME280;3250;42.694;23.278;2023-03-01T00:40:24;95263.28;;;7.15;90.45
6435;BME280;3250;42.694;23.278;2023-03-01T00:42:49;95229.25;;;7.00;90.41
6435;BME280;3250;42.694;23.278;2023-03-01T00:45:15;95257.66;;;7.03;90.81
6435;BME280;3250;42.694;23.278;2023-03-01T00:47:41;95254.22;;;6.88;91.31
6435;BME280;3250;42.694;23.278;2023-03-01T00:50:07;95260.91;;;6.91;91.48
6435;BME280;3250;42.694;23.278;2023-03-01T00:52:32;95255.50;;;7.07;91.12
6435;BME280;3250;42.694;23.278;2023-03-01T00:54:57;95238.81;;;7.08;90.53
6435;BME280;3250;42.694;23.278;2023-03-01T00:57:23;95195.91;;;6.65;89.82
6435;BME280;3250;42.694;23.278;2023-03-01T00:59:49;95240.84;;;6.83;90.90
6435;BME280;3250;42.694;23.278;2023-03-01T01:02:14;95254.47;;;6.78;91.68
6435;BME280;3250;42.694;23.278;2023-03-01T01:04:40;95247.16;;;6.74;91.02
6435;BME280;3250;42.694;23.278;2023-03-01T01:07:06;95258.44;;;6.74;92.14
6435;BME280;3250;42.694;23.278;2023-03-01T01:09:31;95258.22;;;6.76;91.14
6435;BME280;3250;42.694;23.278;2023-03-01T01:11:56;95261.88;;;6.90;91.00
6435;BME280;3250;42.694;23.278;2023-03-01T01:14:22;95252.78;;;7.00;90.53
6435;BME280;3250;42.694;23.278;2023-03-01T01:16:47;95254.78;;;6.98;90.09
6435;BME280;3250;42.694;23.278;2023-03-01T01:19:13;95241.84;;;6.97;90.18
6435;BME280;3250;42.694;23.278;2023-03-01T01:21:40;95243.09;;;6.86;89.77
6435;BME280;3250;42.694;23.278;2023-03-01T01:24:08;95250.88;;;6.94;89.98
6435;BME280;3250;42.694;23.278;2023-03-01T01:26:34;95252.31;;;6.97;89.41
6435;BME280;3250;42.694;23.278;2023-03-01T01:29:01;95254.69;;;6.92;89.84
6435;BME280;3250;42.694;23.278;2023-03-01T01:31:27;95258.38;;;6.97;89.66
6435;BME280;3250;42.694;23.278;2023-03-01T01:33:53;95243.09;;;6.86;89.98
6435;BME280;3250;42.694;23.278;2023-03-01T01:36:20;95249.69;;;6.82;89.32
6435;BME280;3250;42.694;23.278;2023-03-01T01:38:46;95264.41;;;6.83;89.74
6435;BME280;3250;42.694;23.278;2023-03-01T01:41:12;95259.44;;;6.88;89.36
6435;BME280;3250;42.694;23.278;2023-03-01T01:43:43;95264.13;;;6.93;88.76
6435;BME280;3250;42.694;23.278;2023-03-01T01:46:31;95267.28;;;6.88;89.07
6435;BME280;3250;42.694;23.278;2023-03-01T01:49:05;95271.81;;;6.94;88.62
6435;BME280;3250;42.694;23.278;2023-03-01T01:51:39;95261.97;;;6.96;88.46
6435;BME280;3250;42.694;23.278;2023-03-01T01:54:25;95250.22;;;6.92;88.52
6435;BME280;3250;42.694;23.278;2023-03-01T01:57:00;95250.31;;;6.84;88.68
6435;BME280;3250;42.694;23.278;2023-03-01T01:59:29;95216.00;;;6.64;88.32
6435;BME280;3250;42.694;23.278;2023-03-01T02:01:59;95256.91;;;6.95;88.12
6435;BME280;3250;42.694;23.278;2023-03-01T02:04:25;95249.16;;;7.01;88.11
6435;BME280;3250;42.694;23.278;2023-03-01T02:06:59;95239.88;;;6.99;87.54
6435;BME280;3250;42.694;23.278;2023-03-01T02:09:26;95229.31;;;7.07;87.02
6435;BME280;3250;42.694;23.278;2023-03-01T02:11:53;95209.72;;;7.03;86.33
6435;BME280;3250;42.694;23.278;2023-03-01T02:14:19;95221.22;;;7.16;85.82
6435;BME280;3250;42.694;23.278;2023-03-01T02:16:45;95225.63;;;7.16;85.19
6435;BME280;3250;42.694;23.278;2023-03-01T02:19:21;95223.38;;;7.13;85.07
6435;BME280;3250;42.694;23.278;2023-03-01T02:22:10;95232.75;;;7.07;85.54
6435;BME280;3250;42.694;23.278;2023-03-01T02:27:05;95198.00;;;6.99;84.59
6435;BME280;3250;42.694;23.278;2023-03-01T02:29:30;95230.50;;;7.04;85.50
6435;BME280;3250;42.694;23.278;2023-03-01T02:31:58;95224.91;;;7.07;85.21
6435;BME280;3250;42.694;23.278;2023-03-01T02:34:25;95240.16;;;7.18;84.97
6435;BME280;3250;42.694;23.278;2023-03-01T02:37:03;95244.78;;;7.16;84.98
6435;BME280;3250;42.694;23.278;2023-03-01T02:39:45;95244.47;;;7.11;84.85
6435;BME280;3250;42.694;23.278;2023-03-01T02:42:15;95234.75;;;7.05;85.41
6435;BME280;3250;42.694;23.278;2023-03-01T02:44:42;95255.59;;;6.99;85.68
6435;BME280;3250;42.694;23.278;2023-03-01T02:47:07;95244.09;;;6.85;86.44
6435;BME280;3250;42.694;23.278;2023-03-01T02:49:35;95244.09;;;6.85;87.25
6435;BME280;3250;42.694;23.278;2023-03-01T02:57:31;95237.31;;;6.76;87.43
6435;BME280;3250;42.694;23.278;2023-03-01T03:00:06;95203.00;;;6.56;88.41
6435;BME280;3250;42.694;23.278;2023-03-01T03:02:34;95192.34;;;6.58;88.11
6435;BME280;3250;42.694;23.278;2023-03-01T03:05:23;95235.25;;;6.86;88.00
6435;BME280;3250;42.694;23.278;2023-03-01T03:07:49;95164.72;;;6.40;88.06
6435;BME280;3250;42.694;23.278;2023-03-01T03:10:21;95237.16;;;6.92;87.85
6435;BME280;3250;42.694;23.278;2023-03-01T03:12:56;95241.38;;;6.93;87.58
6435;BME280;3250;42.694;23.278;2023-03-01T03:15:22;95240.31;;;6.88;87.85
6435;BME280;3250;42.694;23.278;2023-03-01T03:17:49;95240.72;;;6.76;88.21
6435;BME280;3250;42.694;23.278;2023-03-01T03:20:17;95252.72;;;6.71;88.38
6435;BME280;3250;42.694;23.278;2023-03-01T03:22:47;95247.41;;;6.64;89.51
6435;BME280;3250;42.694;23.278;2023-03-01T03:25:13;95251.28;;;6.68;89.31
6435;BME280;3250;42.694;23.278;2023-03-01T03:27:39;95236.69;;;6.74;89.12
6435;BME280;3250;42.694;23.278;2023-03-01T03:30:07;95259.03;;;6.76;88.76
6435;BME280;3250;42.694;23.278;2023-03-01T03:32:38;95239.72;;;6.63;89.11
6435;BME280;3250;42.694;23.278;2023-03-01T03:35:04;95259.59;;;6.72;89.24
6435;BME280;3250;42.694;23.278;2023-03-01T03:37:36;95224.63;;;6.50;89.02
6435;BME280;3250;42.694;23.278;2023-03-01T03:40:20;95252.88;;;6.55;89.39
6435;BME280;3250;42.694;23.278;2023-03-01T03:42:45;95259.72;;;6.56;89.90
6435;BME280;3250;42.694;23.278;2023-03-01T03:45:11;95269.38;;;6.55;89.80
6435;BME280;3250;42.694;23.278;2023-03-01T03:47:37;95258.34;;;6.45;89.89
6435;BME280;3250;42.694;23.278;2023-03-01T03:50:02;95267.34;;;6.42;90.11
6435;BME280;3250;42.694;23.278;2023-03-01T03:52:27;95262.84;;;6.51;90.31
6435;BME280;3250;42.694;23.278;2023-03-01T03:54:53;95270.56;;;6.67;89.21
6435;BME280;3250;42.694;23.278;2023-03-01T03:57:18;95267.59;;;6.70;88.99
6435;BME280;3250;42.694;23.278;2023-03-01T03:59:44;95261.88;;;6.52;89.65
6435;BME280;3250;42.694;23.278;2023-03-01T04:02:09;95258.84;;;6.63;89.20
6435;BME280;3250;42.694;23.278;2023-03-01T04:04:34;95259.94;;;6.69;89.18
6435;BME280;3250;42.694;23.278;2023-03-01T04:07:00;95266.78;;;6.70;89.02
6435;BME280;3250;42.694;23.278;2023-03-01T04:09:25;95227.47;;;6.40;88.94
6435;BME280;3250;42.694;23.278;2023-03-01T04:11:50;95265.34;;;6.67;88.58
6435;BME280;3250;42.694;23.278;2023-03-01T04:14:16;95260.03;;;6.75;88.66
6435;BME280;3250;42.694;23.278;2023-03-01T04:16:41;95263.13;;;6.79;88.12
6435;BME280;3250;42.694;23.278;2023-03-01T04:19:07;95270.69;;;6.74;88.06
6435;BME280;3250;42.694;23.278;2023-03-01T04:21:34;95215.00;;;6.28;88.26
6435;BME280;3250;42.694;23.278;2023-03-01T04:24:01;95263.09;;;6.64;88.74
6435;BME280;3250;42.694;23.278;2023-03-01T04:26:28;95261.00;;;6.60;88.55
6435;BME280;3250;42.694;23.278;2023-03-01T04:28:54;95269.88;;;6.73;88.28
6435;BME280;3250;42.694;23.278;2023-03-01T04:31:20;95213.41;;;6.41;88.87
6435;BME280;3250;42.694;23.278;2023-03-01T04:33:49;95268.16;;;6.66;88.75
6435;BME280;3250;42.694;23.278;2023-03-01T04:36:17;95267.75;;;6.54;88.94
6435;BME280;3250;42.694;23.278;2023-03-01T04:38:44;95258.09;;;6.55;89.15
6435;BME280;3250;42.694;23.278;2023-03-01T04:41:13;95220.34;;;6.34;89.45
6435;BME280;3250;42.694;23.278;2023-03-01T04:43:38;95238.97;;;6.54;88.86
6435;BME280;3250;42.694;23.278;2023-03-01T04:46:06;95249.88;;;6.58;88.98
6435;BME280;3250;42.694;23.278;2023-03-01T04:48:35;95252.69;;;6.56;89.26
6435;BME280;3250;42.694;23.278;2023-03-01T04:51:02;95254.59;;;6.62;89.55
6435;BME280;3250;42.694;23.278;2023-03-01T04:53:28;95235.44;;;6.47;89.38
6435;BME280;3250;42.694;23.278;2023-03-01T04:55:55;95256.94;;;6.57;89.37
6435;BME280;3250;42.694;23.278;2023-03-01T04:58:24;95242.47;;;6.47;89.38
6435;BME280;3250;42.694;23.278;2023-03-01T05:00:51;95256.94;;;6.57;89.73
6435;BME280;3250;42.694;23.278;2023-03-01T05:03:16;95241.69;;;6.61;89.38
6435;BME280;3250;42.694;23.278;2023-03-01T05:05:44;95248.91;;;6.59;89.38
6435;BME280;3250;42.694;23.278;2023-03-01T05:08:09;95250.53;;;6.60;89.33
6435;BME280;3250;42.694;23.278;2023-03-01T05:10:45;95252.69;;;6.33;89.69
6435;BME280;3250;42.694;23.278;2023-03-01T05:13:12;95246.53;;;6.26;91.03
6435;BME280;3250;42.694;23.278;2023-03-01T05:15:38;95259.03;;;6.39;90.82
6435;BME280;3250;42.694;23.278;2023-03-01T05:18:04;95256.78;;;6.36;90.50
6435;BME280;3250;42.694;23.278;2023-03-01T05:20:32;95207.53;;;6.02;90.63
6435;BME280;3250;42.694;23.278;2023-03-01T05:23:01;95264.56;;;6.44;90.29
6435;BME280;3250;42.694;23.278;2023-03-01T05:25:33;95250.38;;;6.38;90.07
6435;BME280;3250;42.694;23.278;2023-03-01T05:28:01;95272.88;;;6.48;90.36
6435;BME280;3250;42.694;23.278;2023-03-01T05:30:30;95257.25;;;6.39;90.53
6435;BME280;3250;42.694;23.278;2023-03-01T05:32:56;95257.47;;;6.53;90.21
6435;BME280;3250;42.694;23.278;2023-03-01T05:35:21;95258.19;;;6.61;89.61
6435;BME280;3250;42.694;23.278;2023-03-01T05:37:48;95260.09;;;6.67;89.32
6435;BME280;3250;42.694;23.278;2023-03-01T05:40:19;95256.88;;;6.65;88.62
6435;BME280;3250;42.694;23.278;2023-03-01T05:42:50;95226.97;;;6.45;88.93
6435;BME280;3250;42.694;23.278;2023-03-01T05:45:17;95262.03;;;6.51;89.49
6435;BME280;3250;42.694;23.278;2023-03-01T05:47:44;95228.53;;;6.31;89.50
6435;BME280;3250;42.694;23.278;2023-03-01T05:50:16;95230.78;;;6.34;89.11
6435;BME280;3250;42.694;23.278;2023-03-01T05:52:46;95243.91;;;6.49;89.60
6435;BME280;3250;42.694;23.278;2023-03-01T05:55:13;95266.34;;;6.43;89.92
6435;BME280;3250;42.694;23.278;2023-03-01T05:57:39;95263.91;;;6.42;89.72
6435;BME280;3250;42.694;23.278;2023-03-01T06:00:04;95286.41;;;6.51;89.80
6435;BME280;3250;42.694;23.278;2023-03-01T06:02:31;95299.56;;;6.58;89.63
6435;BME280;3250;42.694;23.278;2023-03-01T06:04:56;95284.59;;;6.52;89.89
6435;BME280;3250;42.694;23.278;2023-03-01T06:07:22;95293.59;;;6.49;89.76
6435;BME280;3250;42.694;23.278;2023-03-01T06:09:48;95264.34;;;6.31;89.64
6435;BME280;3250;42.694;23.278;2023-03-01T06:12:13;95292.59;;;6.50;89.97
6435;BME280;3250;42.694;23.278;2023-03-01T06:14:38;95296.75;;;6.44;90.34
6435;BME280;3250;42.694;23.278;2023-03-01T06:17:04;95305.50;;;6.52;89.66
6435;BME280;3250;42.694;23.278;2023-03-01T06:19:29;95308.72;;;6.62;89.21
6435;BME280;3250;42.694;23.278;2023-03-01T06:21:55;95285.94;;;6.48;89.22
6435;BME280;3250;42.694;23.278;2023-03-01T06:24:20;95304.06;;;6.72;88.61
6435;BME280;3250;42.694;23.278;2023-03-01T06:26:45;95272.69;;;6.49;88.78
6435;BME280;3250;42.694;23.278;2023-03-01T06:29:11;95295.47;;;6.63;88.89
6435;BME280;3250;42.694;23.278;2023-03-01T06:31:36;95279.72;;;6.49;88.45
6435;BME280;3250;42.694;23.278;2023-03-01T06:34:02;95305.88;;;6.49;88.65
6435;BME280;3250;42.694;23.278;2023-03-01T06:36:28;95308.84;;;6.46;89.71
6435;BME280;3250;42.694;23.278;2023-03-01T06:38:53;95301.56;;;6.33;89.66
6435;BME280;3250;42.694;23.278;2023-03-01T06:41:19;95304.69;;;6.28;90.49
6435;BME280;3250;42.694;23.278;2023-03-01T06:43:44;95292.84;;;6.18;90.51
6435;BME280;3250;42.694;23.278;2023-03-01T06:46:10;95300.66;;;6.18;90.88
6435;BME280;3250;42.694;23.278;2023-03-01T06:48:35;95306.34;;;6.29;90.16
6435;BME280;3250;42.694;23.278;2023-03-01T06:51:01;95296.53;;;6.23;90.58
6435;BME280;3250;42.694;23.278;2023-03-01T06:53:27;95315.00;;;6.30;90.21
6435;BME280;3250;42.694;23.278;2023-03-01T06:55:56;95277.31;;;6.16;90.30
6435;BME280;3250;42.694;23.278;2023-03-01T06:58:23;95309.41;;;6.33;90.04
6435;BME280;3250;42.694;23.278;2023-03-01T07:00:48;95303.06;;;6.27;90.19
6435;BME280;3250;42.694;23.278;2023-03-01T07:03:14;95292.28;;;6.30;90.25
6435;BME280;3250;42.694;23.278;2023-03-01T07:05:39;95309.00;;;6.44;89.81
6435;BME280;3250;42.694;23.278;2023-03-01T07:08:05;95296.69;;;6.30;89.38
6435;BME280;3250;42.694;23.278;2023-03-01T07:10:30;95291.97;;;6.25;89.86
6435;BME280;3250;42.694;23.278;2023-03-01T07:12:56;95304.31;;;6.39;89.98
6435;BME280;3250;42.694;23.278;2023-03-01T07:15:22;95276.59;;;6.30;89.46
6435;BME280;3250;42.694;23.278;2023-03-01T07:17:47;95304.53;;;6.53;88.87
6435;BME280;3250;42.694;23.278;2023-03-01T07:20:16;95281.06;;;6.44;89.04
6435;BME280;3250;42.694;23.278;2023-03-01T07:22:41;95274.84;;;6.46;88.19
6435;BME280;3250;42.694;23.278;2023-03-01T07:25:08;95300.81;;;6.70;87.61
6435;BME280;3250;42.694;23.278;2023-03-01T07:27:33;95290.56;;;6.60;88.18
6435;BME280;3250;42.694;23.278;2023-03-01T07:29:59;95292.13;;;6.69;88.59
6435;BME280;3250;42.694;23.278;2023-03-01T07:32:24;95303.41;;;6.70;87.50
6435;BME280;3250;42.694;23.278;2023-03-01T07:34:51;95295.28;;;6.65;87.52
6435;BME280;3250;42.694;23.278;2023-03-01T07:37:16;95297.47;;;6.76;87.47
6435;BME280;3250;42.694;23.278;2023-03-01T07:39:42;95297.41;;;6.84;86.97
6435;BME280;3250;42.694;23.278;2023-03-01T07:42:08;95305.56;;;6.89;87.14
6435;BME280;3250;42.694;23.278;2023-03-01T07:44:33;95297.63;;;6.97;86.18
6435;BME280;3250;42.694;23.278;2023-03-01T07:47:00;95296.63;;;6.98;86.47
6435;BME280;3250;42.694;23.278;2023-03-01T07:49:25;95281.84;;;7.05;86.10
6435;BME280;3250;42.694;23.278;2023-03-01T07:51:52;95295.03;;;7.12;85.49
6435;BME280;3250;42.694;23.278;2023-03-01T07:54:17;95292.88;;;7.15;85.63
6435;BME280;3250;42.694;23.278;2023-03-01T07:56:43;95285.38;;;7.12;85.07
6435;BME280;3250;42.694;23.278;2023-03-01T07:59:09;95275.13;;;6.88;85.95
6435;BME280;3250;42.694;23.278;2023-03-01T08:01:34;95282.81;;;6.90;86.07
6435;BME280;3250;42.694;23.278;2023-03-01T08:04:00;95279.00;;;6.92;86.44
6435;BME280;3250;42.694;23.278;2023-03-01T08:06:26;95293.03;;;6.99;86.22
6435;BME280;3250;42.694;23.278;2023-03-01T08:08:52;95286.75;;;6.86;86.14
6435;BME280;3250;42.694;23.278;2023-03-01T08:11:20;95278.00;;;6.78;86.45
6435;BME280;3250;42.694;23.278;2023-03-01T08:13:47;95280.09;;;6.83;86.09
6435;BME280;3250;42.694;23.278;2023-03-01T08:16:15;95272.25;;;6.83;86.69
6435;BME280;3250;42.694;23.278;2023-03-01T08:18:41;95285.59;;;6.88;85.72
6435;BME280;3250;42.694;23.278;2023-03-01T08:21:09;95273.72;;;7.00;86.14
6435;BME280;3250;42.694;23.278;2023-03-01T08:23:35;95277.44;;;7.06;85.73
6435;BME280;3250;42.694;23.278;2023-03-01T08:28:37;95285.19;;;7.29;85.04
6435;BME280;3250;42.694;23.278;2023-03-01T08:31:12;95269.06;;;7.25;84.43
6435;BME280;3250;42.694;23.278;2023-03-01T08:33:37;95271.41;;;7.35;84.68
6435;BME280;3250;42.694;23.278;2023-03-01T08:36:04;95262.53;;;7.36;83.94
6435;BME280;3250;42.694;23.278;2023-03-01T08:38:33;95286.94;;;7.51;83.71
6435;BME280;3250;42.694;23.278;2023-03-01T08:41:06;95272.22;;;7.50;83.90
6435;BME280;3250;42.694;23.278;2023-03-01T08:43:32;95262.81;;;7.55;83.08
6435;BME280;3250;42.694;23.278;2023-03-01T08:45:57;95282.31;;;7.68;83.08
6435;BME280;3250;42.694;23.278;2023-03-01T08:48:23;95271.72;;;7.61;83.00
6435;BME280;3250;42.694;23.278;2023-03-01T08:50:48;95275.53;;;7.73;83.05
6435;BME280;3250;42.694;23.278;2023-03-01T08:53:14;95272.16;;;7.94;81.97
6435;BME280;3250;42.694;23.278;2023-03-01T08:55:39;95288.31;;;7.97;80.75
6435;BME280;3250;42.694;23.278;2023-03-01T08:58:05;95279.91;;;8.02;80.97
6435;BME280;3250;42.694;23.278;2023-03-01T09:00:30;95276.66;;;8.00;80.46
6435;BME280;3250;42.694;23.278;2023-03-01T09:02:56;95284.06;;;7.96;80.29
6435;BME280;3250;42.694;23.278;2023-03-01T09:05:21;95281.97;;;8.07;80.27
6435;BME280;3250;42.694;23.278;2023-03-01T09:07:46;95280.03;;;7.94;79.76
6435;BME280;3250;42.694;23.278;2023-03-01T09:10:12;95278.53;;;8.06;79.17
6435;BME280;3250;42.694;23.278;2023-03-01T09:12:37;95280.94;;;8.22;78.63
6435;BME280;3250;42.694;23.278;2023-03-01T09:15:03;95274.97;;;8.28;78.04
6435;BME280;3250;42.694;23.278;2023-03-01T09:17:28;95269.53;;;8.30;77.24
6435;BME280;3250;42.694;23.278;2023-03-01T09:19:54;95259.06;;;8.15;77.62
6435;BME280;3250;42.694;23.278;2023-03-01T09:22:19;95268.38;;;8.32;77.78
6435;BME280;3250;42.694;23.278;2023-03-01T09:24:45;95281.63;;;8.46;77.38
6435;BME280;3250;42.694;23.278;2023-03-01T09:27:10;95275.94;;;8.42;77.14
6435;BME280;3250;42.694;23.278;2023-03-01T09:29:38;95269.06;;;8.41;77.13
6435;BME280;3250;42.694;23.278;2023-03-01T09:32:03;95271.25;;;8.38;77.02
6435;BME280;3250;42.694;23.278;2023-03-01T09:34:29;95297.84;;;8.35;77.13
6435;BME280;3250;42.694;23.278;2023-03-01T09:36:54;95278.19;;;8.30;77.70
6435;BME280;3250;42.694;23.278;2023-03-01T09:39:20;95271.66;;;8.20;77.72
6435;BME280;3250;42.694;23.278;2023-03-01T09:42:04;95214.94;;;7.97;78.13
6435;BME280;3250;42.694;23.278;2023-03-01T09:46:59;95264.25;;;8.45;77.40
6435;BME280;3250;42.694;23.278;2023-03-01T09:49:28;95268.31;;;8.47;77.44
6435;BME280;3250;42.694;23.278;2023-03-01T09:54:39;95265.56;;;8.55;76.64
6435;BME280;3250;42.694;23.278;2023-03-01T09:57:20;95257.31;;;8.37;77.54
6435;BME280;3250;42.694;23.278;2023-03-01T10:02:57;95245.03;;;8.23;78.37
6435;BME280;3250;42.694;23.278;2023-03-01T10:08:05;95257.69;;;8.34;77.92
6435;BME280;3250;42.694;23.278;2023-03-01T10:10:35;95236.16;;;8.24;78.13
6435;BME280;3250;42.694;23.278;2023-03-01T10:15:57;95233.44;;;8.32;78.54
6435;BME280;3250;42.694;23.278;2023-03-01T10:18:30;95236.94;;;8.39;78.27
6435;BME280;3250;42.694;23.278;2023-03-01T10:21:17;95239.50;;;8.32;78.14
6435;BME280;3250;42.694;23.278;2023-03-01T10:23:43;95240.41;;;8.25;78.60
6435;BME280;3250;42.694;23.278;2023-03-01T10:29:03;95227.31;;;8.25;78.23
6435;BME280;3250;42.694;23.278;2023-03-01T10:31:50;95230.81;;;8.11;79.45
6435;BME280;3250;42.694;23.278;2023-03-01T10:34:26;95238.84;;;8.09;78.79
6435;BME280;3250;42.694;23.278;2023-03-01T10:36:56;95219.31;;;8.12;79.66
6435;BME280;3250;42.694;23.278;2023-03-01T10:39:25;95213.56;;;8.38;78.80
6435;BME280;3250;42.694;23.278;2023-03-01T10:42:05;95221.84;;;8.62;77.35
6435;BME280;3250;42.694;23.278;2023-03-01T10:44:46;95228.50;;;8.65;77.20
6435;BME280;3250;42.694;23.278;2023-03-01T10:47:27;95220.84;;;8.63;77.11
6435;BME280;3250;42.694;23.278;2023-03-01T10:49:56;95216.13;;;8.80;76.32
6435;BME280;3250;42.694;23.278;2023-03-01T10:52:31;95213.41;;;8.74;76.60
6435;BME280;3250;42.694;23.278;2023-03-01T10:55:00;95180.00;;;8.54;76.95
6435;BME280;3250;42.694;23.278;2023-03-01T10:57:31;95222.47;;;8.64;76.66
6435;BME280;3250;42.694;23.278;2023-03-01T11:00:24;95228.97;;;8.47;76.55
6435;BME280;3250;42.694;23.278;2023-03-01T11:05:24;95214.09;;;8.33;78.45
6435;BME280;3250;42.694;23.278;2023-03-01T11:07:55;95218.59;;;8.39;76.94
6435;BME280;3250;42.694;23.278;2023-03-01T11:10:24;95204.66;;;8.17;76.81
6435;BME280;3250;42.694;23.278;2023-03-01T11:12:53;95217.22;;;8.43;76.74
6435;BME280;3250;42.694;23.278;2023-03-01T11:15:30;95216.09;;;8.52;76.78
6435;BME280;3250;42.694;23.278;2023-03-01T11:17:56;95212.19;;;8.69;76.22
6435;BME280;3250;42.694;23.278;2023-03-01T11:20:36;95209.94;;;8.66;76.38
6435;BME280;3250;42.694;23.278;2023-03-01T11:23:06;95218.47;;;8.75;76.47
6435;BME280;3250;42.694;23.278;2023-03-01T11:25:40;95203.81;;;8.81;76.26
6435;BME280;3250;42.694;23.278;2023-03-01T11:28:13;95204.81;;;8.80;76.07
6435;BME280;3250;42.694;23.278;2023-03-01T11:31:02;95213.69;;;8.79;76.26
6435;BME280;3250;42.694;23.278;2023-03-01T11:39:05;95194.69;;;8.77;75.96
6435;BME280;3250;42.694;23.278;2023-03-01T11:41:39;95183.81;;;8.80;75.58
6435;BME280;3250;42.694;23.278;2023-03-01T11:44:16;95188.56;;;8.69;75.23
6435;BME280;3250;42.694;23.278;2023-03-01T11:46:49;95183.31;;;8.69;76.34
6435;BME280;3250;42.694;23.278;2023-03-01T12:03:01;95170.31;;;8.55;77.14
6435;BME280;3250;42.694;23.278;2023-03-01T12:08:29;95151.88;;;8.48;77.47
6435;BME280;3250;42.694;23.278;2023-03-01T12:19:00;95164.09;;;8.90;77.93
6435;BME280;3250;42.694;23.278;2023-03-01T12:24:36;95158.72;;;9.05;76.97
6435;BME280;3250;42.694;23.278;2023-03-01T12:38:08;95110.19;;;8.94;75.41
6435;BME280;3250;42.694;23.278;2023-03-01T12:43:47;95136.28;;;9.02;75.64
6435;BME280;3250;42.694;23.278;2023-03-01T12:46:38;95129.38;;;8.95;75.62
6435;BME280;3250;42.694;23.278;2023-03-01T12:49:16;95140.97;;;9.07;75.93
6435;BME280;3250;42.694;23.278;2023-03-01T12:51:57;95138.25;;;8.94;75.96
6435;BME280;3250;42.694;23.278;2023-03-01T12:54:27;95149.38;;;8.96;75.81
6435;BME280;3250;42.694;23.278;2023-03-01T12:56:54;95143.94;;;8.97;76.15
6435;BME280;3250;42.694;23.278;2023-03-01T13:02:25;95151.22;;;9.02;76.36
6435;BME280;3250;42.694;23.278;2023-03-01T13:10:41;95141.81;;;8.80;77.37
6435;BME280;3250;42.694;23.278;2023-03-01T13:13:20;95130.06;;;8.76;77.53
6435;BME280;3250;42.694;23.278;2023-03-01T13:15:46;95142.47;;;8.88;77.71
6435;BME280;3250;42.694;23.278;2023-03-01T13:23:13;95132.44;;;8.98;77.00
6435;BME280;3250;42.694;23.278;2023-03-01T13:33:58;95149.41;;;9.02;77.02
6435;BME280;3250;42.694;23.278;2023-03-01T13:47:17;95135.56;;;8.81;77.71
6435;BME280;3250;42.694;23.278;2023-03-01T13:52:39;95132.16;;;8.87;78.73
6435;BME280;3250;42.694;23.278;2023-03-01T13:55:41;95077.41;;;8.49;78.32
6435;BME280;3250;42.694;23.278;2023-03-01T13:58:23;95133.75;;;8.81;78.77
6435;BME280;3250;42.694;23.278;2023-03-01T14:00:58;95109.84;;;8.69;79.01
6435;BME280;3250;42.694;23.278;2023-03-01T14:03:23;95135.50;;;8.74;79.50
6435;BME280;3250;42.694;23.278;2023-03-01T14:08:29;95138.50;;;8.64;79.89
6435;BME280;3250;42.694;23.278;2023-03-01T14:19:17;95133.66;;;8.68;80.54
6435;BME280;3250;42.694;23.278;2023-03-01T14:21:44;95106.59;;;8.40;81.18
6435;BME280;3250;42.694;23.278;2023-03-01T14:24:20;95108.97;;;8.56;80.25
6435;BME280;3250;42.694;23.278;2023-03-01T14:26:47;95120.13;;;8.64;80.47
6435;BME280;3250;42.694;23.278;2023-03-01T14:29:24;95107.72;;;8.52;80.36
6435;BME280;3250;42.694;23.278;2023-03-01T14:31:50;95122.31;;;8.61;80.35
6435;BME280;3250;42.694;23.278;2023-03-01T14:34:20;95117.50;;;8.64;80.23
6435;BME280;3250;42.694;23.278;2023-03-01T14:36:46;95108.56;;;8.59;79.74
6435;BME280;3250;42.694;23.278;2023-03-01T14:39:24;95116.25;;;8.32;79.68
6435;BME280;3250;42.694;23.278;2023-03-01T14:41:51;95096.81;;;8.27;81.45
6435;BME280;3250;42.694;23.278;2023-03-01T14:44:23;95113.09;;;8.44;81.36
6435;BME280;3250;42.694;23.278;2023-03-01T14:46:53;95118.78;;;8.47;81.18
6435;BME280;3250;42.694;23.278;2023-03-01T14:49:26;95107.25;;;8.20;82.17
6435;BME280;3250;42.694;23.278;2023-03-01T14:51:59;95131.91;;;8.26;82.49
6435;BME280;3250;42.694;23.278;2023-03-01T14:54:38;95120.16;;;8.22;82.64
6435;BME280;3250;42.694;23.278;2023-03-01T14:57:05;95122.03;;;8.28;82.96
6435;BME280;3250;42.694;23.278;2023-03-01T14:59:35;95105.69;;;8.26;82.56
6435;BME280;3250;42.694;23.278;2023-03-01T15:02:01;95083.84;;;8.19;82.64
6435;BME280;3250;42.694;23.278;2023-03-01T15:04:27;95109.19;;;8.33;82.24
6435;BME280;3250;42.694;23.278;2023-03-01T15:06:55;95101.75;;;8.37;82.25
6435;BME280;3250;42.694;23.278;2023-03-01T15:09:32;95103.16;;;8.11;82.54
6435;BME280;3250;42.694;23.278;2023-03-01T15:11:59;95103.97;;;7.90;83.46
6435;BME280;3250;42.694;23.278;2023-03-01T15:17:01;95086.81;;;7.67;84.54
6435;BME280;3250;42.694;23.278;2023-03-01T15:19:27;95085.44;;;7.71;84.56
6435;BME280;3250;42.694;23.278;2023-03-01T15:21:53;95107.97;;;7.86;84.40
6435;BME280;3250;42.694;23.278;2023-03-01T15:24:26;95106.72;;;7.82;84.38
6435;BME280;3250;42.694;23.278;2023-03-01T15:29:25;95096.69;;;7.86;84.67
6435;BME280;3250;42.694;23.278;2023-03-01T15:34:52;95094.59;;;8.03;83.20
6435;BME280;3250;42.694;23.278;2023-03-01T15:40:02;95110.84;;;7.91;84.41
6435;BME280;3250;42.694;23.278;2023-03-01T15:45:28;95104.91;;;7.83;84.29
6435;BME280;3250;42.694;23.278;2023-03-01T15:47:59;95102.78;;;7.93;83.77